Time;durP1;ratioP1;P1;durP2;ratioP2;P2;SDS_P1;SDS_P2;PMS_P1;PMS_P2;Temp;Humidity;BMP_temperature;BMP_pressure;BME280_temperature;BME280_humidity;BME280_pressure;Samples;Min_cycle;Max_cycle;Signal;HPM_P1;HPM_P2
2021/12/11 03:45:36;;;;;;;102.38;39.92;;;2.90;99.90;;;;;;5511197;24;20293;-79
2021/12/11 03:48:16;;;;;;;99.90;41.08;;;2.80;99.90;;;;;;4681764;30;20041;-80
2021/12/11 03:50:43;;;;;;;105.00;42.88;;;2.90;99.90;;;;;;4707065;30;20036;-80
2021/12/11 03:53:11;;;;;;;101.85;40.38;;;2.90;99.90;;;;;;4667915;30;20044;-79
2021/12/11 03:55:45;;;;;;;105.07;42.25;;;3.00;99.90;;;;;;4681856;30;20040;-79
2021/12/11 03:58:12;;;;;;;106.70;41.10;;;3.00;99.90;;;;;;4682211;30;20033;-80
2021/12/11 04:00:54;;;;;;;109.27;44.17;;;2.90;99.90;;;;;;4711884;30;20333;-79
2021/12/11 04:03:25;;;;;;;104.82;41.80;;;2.90;99.90;;;;;;4695920;30;20307;-80
2021/12/11 04:05:55;;;;;;;104.50;42.38;;;2.90;99.90;;;;;;4694450;30;20121;-80
2021/12/11 04:08:25;;;;;;;112.03;44.53;;;2.90;99.90;;;;;;4699594;30;20034;-80
2021/12/11 04:10:51;;;;;;;115.40;45.13;;;2.80;99.90;;;;;;4690823;30;20057;-80
2021/12/11 04:13:17;;;;;;;110.38;43.00;;;2.80;99.90;;;;;;4668311;30;20045;-80
2021/12/11 04:15:46;;;;;;;107.20;42.15;;;2.80;99.90;;;;;;4683514;30;20096;-80
2021/12/11 04:18:12;;;;;;;112.85;43.60;;;2.80;99.90;;;;;;4684316;30;20037;-80
2021/12/11 04:20:41;;;;;;;93.43;39.78;;;2.90;99.90;;;;;;4681767;30;20104;-79
2021/12/11 04:23:11;;;;;;;96.47;41.30;;;2.80;99.90;;;;;;4681067;30;20083;-80
2021/12/11 04:25:38;;;;;;;93.88;40.28;;;2.90;99.90;;;;;;4695359;30;20030;-80
2021/12/11 04:28:04;;;;;;;101.60;41.83;;;3.00;99.90;;;;;;4653033;30;20207;-80
2021/12/11 04:30:30;;;;;;;92.45;39.83;;;3.00;99.90;;;;;;4666973;30;20044;-80
2021/12/11 04:32:58;;;;;;;94.97;41.17;;;3.00;99.90;;;;;;4695278;30;20149;-80
2021/12/11 04:35:28;;;;;;;96.10;38.88;;;3.00;99.90;;;;;;4681086;30;20348;-80
2021/12/11 04:37:55;;;;;;;92.68;38.40;;;3.10;99.90;;;;;;4680947;30;20229;-80
2021/12/11 04:40:23;;;;;;;;;;;3.10;99.90;;;;;;4681128;30;20041;-80
2021/12/11 04:43:08;;;;;;;98.13;37.67;;;3.10;99.90;;;;;;4680841;30;19950;-80
2021/12/11 04:46:01;;;;;;;92.82;37.97;;;3.20;99.90;;;;;;4666730;30;20068;-80
2021/12/11 04:48:58;;;;;;;104.85;41.03;;;3.20;99.90;;;;;;4677675;30;20030;-80
2021/12/11 04:51:31;;;;;;;113.35;41.13;;;3.20;99.90;;;;;;4605263;31;20082;-80
2021/12/11 04:57:00;;;;;;;106.63;41.00;;;3.20;99.90;;;;;;4608554;31;20387;-80
2021/12/11 04:59:55;;;;;;;102.88;42.75;;;3.20;99.90;;;;;;4623438;31;20358;-80
2021/12/11 05:07:39;;;;;;;101.78;40.38;;;3.10;99.90;;;;;;4609496;31;20115;-79
2021/12/11 05:10:17;;;;;;;95.22;39.17;;;3.00;99.90;;;;;;4609580;31;20065;-79
2021/12/11 05:12:46;;;;;;;103.65;41.45;;;3.00;99.90;;;;;;4593213;31;20048;-79
2021/12/11 05:15:15;;;;;;;97.75;40.63;;;3.00;99.90;;;;;;4609417;31;20303;-79
2021/12/11 05:17:41;;;;;;;97.97;38.58;;;3.10;99.90;;;;;;4609382;31;20043;-79
2021/12/11 05:20:11;;;;;;;100.38;41.22;;;3.10;99.90;;;;;;4581926;31;20117;-79
2021/12/11 05:22:37;;;;;;;95.72;40.90;;;3.20;99.90;;;;;;4609182;31;20044;-79
2021/12/11 05:25:04;;;;;;;91.72;38.35;;;3.10;99.90;;;;;;4595621;31;20071;-79
2021/12/11 05:27:31;;;;;;;105.40;40.10;;;3.20;99.90;;;;;;4632320;30;20083;-80
2021/12/11 05:29:57;;;;;;;105.88;41.20;;;3.20;99.90;;;;;;4694339;30;20045;-80
2021/12/11 05:32:25;;;;;;;99.82;41.65;;;3.20;99.90;;;;;;4676948;30;20276;-80
2021/12/11 05:34:52;;;;;;;101.93;41.08;;;3.30;99.90;;;;;;4682635;30;20033;-80
2021/12/11 05:37:20;;;;;;;108.63;40.92;;;3.30;99.90;;;;;;4709079;30;20060;-80
2021/12/11 05:39:47;;;;;;;98.80;40.70;;;3.30;99.90;;;;;;4709642;30;20084;-80
2021/12/11 05:42:14;;;;;;;104.00;43.00;;;3.20;99.90;;;;;;4694003;30;20043;-80
2021/12/11 05:44:41;;;;;;;100.60;40.75;;;3.20;99.90;;;;;;4679787;30;20092;-80
2021/12/11 05:47:07;;;;;;;103.70;42.22;;;3.20;99.90;;;;;;4690489;30;20129;-80
2021/12/11 05:49:34;;;;;;;104.90;43.10;;;3.10;99.90;;;;;;4668483;30;20088;-80
2021/12/11 05:52:01;;;;;;;87.60;38.22;;;3.10;99.90;;;;;;4654059;30;20084;-80
2021/12/11 05:54:28;;;;;;;110.53;42.92;;;3.20;99.90;;;;;;4693837;30;20120;-80
2021/12/11 05:57:01;;;;;;;96.13;39.70;;;3.20;99.90;;;;;;4693957;30;20052;-80
2021/12/11 05:59:28;;;;;;;97.53;39.17;;;3.20;99.90;;;;;;4708486;30;20219;-80
2021/12/11 06:02:09;;;;;;;93.13;38.65;;;3.20;99.90;;;;;;4693787;30;20304;-80
2021/12/11 06:04:36;;;;;;;103.07;41.72;;;3.20;99.90;;;;;;4694027;30;20241;-80
2021/12/11 06:07:06;;;;;;;103.60;40.80;;;3.20;99.90;;;;;;4694018;30;20153;-80
2021/12/11 06:09:32;;;;;;;98.72;39.08;;;3.20;99.90;;;;;;4683006;30;20334;-80
2021/12/11 06:12:03;;;;;;;99.72;38.75;;;3.20;99.90;;;;;;4691159;30;20084;-80
2021/12/11 06:14:29;;;;;;;95.30;38.72;;;3.10;99.90;;;;;;4671676;30;20112;-80
2021/12/11 06:16:56;;;;;;;107.55;40.80;;;3.10;99.90;;;;;;4685192;30;20029;-80
2021/12/11 06:19:25;;;;;;;104.45;40.22;;;3.10;99.90;;;;;;4676735;30;20041;-81
2021/12/11 06:21:51;;;;;;;106.45;40.97;;;3.10;99.90;;;;;;4663678;30;20057;-80
2021/12/11 06:24:19;;;;;;;94.40;38.67;;;3.00;99.90;;;;;;4695059;30;20049;-81
2021/12/11 06:26:45;;;;;;;98.13;37.17;;;3.00;99.90;;;;;;4682153;30;20157;-80
2021/12/11 06:29:11;;;;;;;99.00;39.57;;;3.00;99.90;;;;;;4691158;30;20057;-81
2021/12/11 06:31:37;;;;;;;103.75;39.00;;;3.10;99.90;;;;;;4671429;30;20285;-80
2021/12/11 06:34:04;;;;;;;104.25;38.30;;;3.00;99.90;;;;;;4667033;30;20045;-80
2021/12/11 06:36:30;;;;;;;99.25;38.85;;;3.00;99.90;;;;;;4686921;30;20033;-80
2021/12/11 06:39:00;;;;;;;96.03;38.25;;;2.90;99.90;;;;;;4683145;30;20117;-80
2021/12/11 06:41:30;;;;;;;100.15;37.97;;;2.90;99.90;;;;;;4676361;30;20050;-80
2021/12/11 06:43:56;;;;;;;93.45;37.35;;;2.90;99.90;;;;;;4674397;30;20106;-80
2021/12/11 06:46:23;;;;;;;94.90;39.27;;;3.00;99.90;;;;;;4672168;30;20073;-80
2021/12/11 06:48:49;;;;;;;104.63;38.67;;;3.00;99.90;;;;;;4691068;30;20044;-80
2021/12/11 06:51:15;;;;;;;93.40;38.63;;;3.10;99.90;;;;;;4678204;30;20034;-80
2021/12/11 06:53:48;;;;;;;94.18;39.10;;;3.10;99.90;;;;;;4680683;30;20311;-80
2021/12/11 06:56:17;;;;;;;97.25;38.55;;;3.10;99.90;;;;;;4697521;30;20100;-80
2021/12/11 06:58:43;;;;;;;97.03;39.58;;;3.10;99.90;;;;;;4685317;30;20061;-80
2021/12/11 07:01:10;;;;;;;99.30;40.35;;;3.20;99.90;;;;;;4681075;30;20050;-80
2021/12/11 07:03:37;;;;;;;103.88;39.30;;;3.20;99.90;;;;;;4695976;30;20033;-80
2021/12/11 07:06:04;;;;;;;100.72;39.78;;;3.20;99.90;;;;;;4696641;30;20042;-80
2021/12/11 07:08:31;;;;;;;94.68;39.55;;;3.20;99.90;;;;;;4692392;30;20100;-80
2021/12/11 07:10:58;;;;;;;101.45;40.20;;;3.20;99.90;;;;;;4681720;30;20422;-80
2021/12/11 07:13:24;;;;;;;91.78;39.25;;;3.10;99.90;;;;;;4686380;30;20041;-80
2021/12/11 07:15:55;;;;;;;97.30;39.55;;;3.00;99.90;;;;;;4687330;30;20037;-80
2021/12/11 07:18:21;;;;;;;95.38;38.65;;;3.10;99.90;;;;;;4695709;30;20072;-80
2021/12/11 07:20:47;;;;;;;102.03;40.53;;;3.10;99.90;;;;;;4680819;30;20237;-80
2021/12/11 07:23:13;;;;;;;102.35;39.88;;;3.10;99.90;;;;;;4696582;30;20072;-80
2021/12/11 07:25:54;;;;;;;102.68;41.65;;;3.10;99.90;;;;;;4662422;30;20045;-80
2021/12/11 07:28:23;;;;;;;103.15;42.03;;;3.00;99.90;;;;;;4690213;30;20034;-79
2021/12/11 07:30:51;;;;;;;103.22;38.03;;;3.00;99.90;;;;;;4675823;30;20325;-80
2021/12/11 07:33:17;;;;;;;106.05;43.05;;;3.10;99.90;;;;;;4683533;30;20048;-79
2021/12/11 07:35:45;;;;;;;108.57;40.13;;;3.10;99.90;;;;;;4682307;30;20055;-79
2021/12/11 07:38:11;;;;;;;102.90;38.30;;;3.20;99.90;;;;;;4679229;30;20073;-80
2021/12/11 07:40:41;;;;;;;98.90;38.42;;;3.20;99.90;;;;;;4678089;30;20064;-79
2021/12/11 07:43:10;;;;;;;99.10;38.58;;;3.30;99.90;;;;;;4676715;30;20334;-80
2021/12/11 07:45:37;;;;;;;99.30;38.20;;;3.30;99.90;;;;;;4683941;30;20368;-79
2021/12/11 07:48:04;;;;;;;109.60;41.10;;;3.30;99.90;;;;;;4680099;30;20037;-79
2021/12/11 07:50:30;;;;;;;108.38;40.15;;;3.40;99.90;;;;;;4666061;30;20156;-79
2021/12/11 07:52:56;;;;;;;106.03;40.22;;;3.30;99.90;;;;;;4676137;30;20042;-79
2021/12/11 07:55:22;;;;;;;107.65;40.47;;;3.20;99.90;;;;;;4691514;30;20622;-79
2021/12/11 07:57:48;;;;;;;90.85;37.50;;;3.30;99.90;;;;;;4679489;30;20034;-80
2021/12/11 08:00:20;;;;;;;96.43;39.03;;;3.30;99.90;;;;;;4675966;30;20068;-80
2021/12/11 08:02:46;;;;;;;100.55;38.63;;;3.40;99.90;;;;;;4670241;30;20036;-80
2021/12/11 08:05:13;;;;;;;92.03;36.58;;;3.50;99.90;;;;;;4679698;30;20045;-80
2021/12/11 08:07:39;;;;;;;94.13;38.65;;;3.50;99.90;;;;;;4677473;30;20083;-80
2021/12/11 08:10:08;;;;;;;102.60;40.08;;;3.50;99.90;;;;;;4679702;30;20835;-80
2021/12/11 08:12:34;;;;;;;91.53;38.25;;;3.50;99.90;;;;;;4708216;30;20041;-80
2021/12/11 08:15:01;;;;;;;94.30;38.65;;;3.50;99.90;;;;;;4676576;30;20040;-80
2021/12/11 08:17:27;;;;;;;101.47;40.47;;;3.50;99.90;;;;;;4677771;30;20187;-80
2021/12/11 08:19:53;;;;;;;104.78;42.00;;;3.50;99.90;;;;;;4678124;30;20053;-80
2021/12/11 08:22:19;;;;;;;115.05;41.53;;;3.40;99.90;;;;;;4675228;30;20034;-80
2021/12/11 08:24:44;;;;;;;109.13;40.50;;;3.30;99.90;;;;;;4679595;30;20056;-80
2021/12/11 08:27:20;;;;;;;117.72;43.25;;;3.30;99.90;;;;;;4676202;30;20044;-80
2021/12/11 08:29:49;;;;;;;102.97;42.85;;;3.40;99.90;;;;;;4684339;30;20033;-79
2021/12/11 08:32:16;;;;;;;105.32;43.25;;;3.50;99.90;;;;;;4693625;30;20045;-80
2021/12/11 08:34:42;;;;;;;;;;;3.50;99.90;;;;;;4665702;30;20041;-80
2021/12/11 08:37:11;;;;;;;102.47;38.35;;;3.50;99.90;;;;;;4693840;30;19962;-80
2021/12/11 08:39:37;;;;;;;95.95;40.03;;;3.50;99.90;;;;;;4678865;30;20092;-80
2021/12/11 08:42:08;;;;;;;107.78;41.78;;;3.50;99.90;;;;;;4691585;30;20064;-80
2021/12/11 08:44:35;;;;;;;104.15;43.88;;;3.60;99.90;;;;;;4676992;30;20041;-80
2021/12/11 08:47:07;;;;;;;109.95;42.15;;;3.60;99.90;;;;;;4676218;30;20066;-80
2021/12/11 08:49:36;;;;;;;111.22;42.63;;;3.60;99.90;;;;;;4669257;30;20044;-80
2021/12/11 08:52:12;;;;;;;96.88;38.85;;;3.70;99.90;;;;;;4668805;30;20062;-80
2021/12/11 08:54:39;;;;;;;107.00;43.47;;;3.80;99.90;;;;;;4670084;30;20089;-80
2021/12/11 08:57:08;;;;;;;106.10;41.65;;;3.80;99.90;;;;;;4675196;30;20045;-80
2021/12/11 08:59:37;;;;;;;98.80;38.45;;;3.90;99.90;;;;;;4670708;30;20046;-80
2021/12/11 09:02:06;;;;;;;103.65;41.03;;;3.80;99.90;;;;;;4690962;30;20052;-80
2021/12/11 09:04:31;;;;;;;108.65;42.72;;;3.80;99.90;;;;;;4676321;30;20046;-80
2021/12/11 09:07:09;;;;;;;99.05;42.00;;;3.80;99.90;;;;;;4691093;30;20097;-80
2021/12/11 09:09:51;;;;;;;99.20;40.63;;;3.80;99.90;;;;;;4682770;30;20058;-80
2021/12/11 09:12:24;;;;;;;110.28;44.35;;;3.90;99.90;;;;;;4673914;30;20030;-80
2021/12/11 09:14:51;;;;;;;103.70;41.97;;;3.90;99.90;;;;;;4691657;30;20041;-80
2021/12/11 09:17:23;;;;;;;100.18;40.75;;;3.90;99.90;;;;;;4682389;30;20045;-80
2021/12/11 09:19:55;;;;;;;95.13;40.13;;;3.90;99.90;;;;;;4686532;30;20088;-80
2021/12/11 09:22:30;;;;;;;99.72;37.50;;;3.90;99.90;;;;;;4671835;30;20352;-81
2021/12/11 09:25:20;;;;;;;95.45;39.92;;;3.90;99.90;;;;;;4688682;30;20109;-81
2021/12/11 09:28:01;;;;;;;102.72;42.78;;;3.80;99.90;;;;;;4668232;30;20030;-81
2021/12/11 09:30:38;;;;;;;99.90;40.17;;;3.90;99.90;;;;;;4679333;30;20029;-81
2021/12/11 09:33:12;;;;;;;94.43;40.90;;;3.90;99.90;;;;;;4692865;30;20057;-81
2021/12/11 09:35:45;;;;;;;82.90;37.28;;;4.00;99.90;;;;;;4701318;30;20052;-81
2021/12/11 09:38:29;;;;;;;98.25;39.45;;;4.00;99.90;;;;;;4702044;30;20384;-81
2021/12/11 09:40:54;;;;;;;91.57;39.88;;;4.10;99.90;;;;;;4685099;30;20326;-81
2021/12/11 09:43:27;;;;;;;97.78;40.60;;;4.20;99.90;;;;;;4694912;30;20397;-81
2021/12/11 09:45:53;;;;;;;90.47;38.33;;;4.20;99.90;;;;;;4698956;30;20087;-80
2021/12/11 09:48:19;;;;;;;99.82;40.17;;;4.20;99.90;;;;;;4699335;30;20057;-80
2021/12/11 09:50:55;;;;;;;93.78;39.20;;;4.20;99.90;;;;;;4699464;30;20432;-80
2021/12/11 09:53:24;;;;;;;100.25;39.13;;;4.20;99.90;;;;;;4693734;30;20042;-80
2021/12/11 09:55:50;;;;;;;86.85;39.10;;;4.20;99.90;;;;;;4691319;30;20230;-80
2021/12/11 09:58:20;;;;;;;96.93;41.10;;;4.20;99.90;;;;;;4691918;30;20045;-81
2021/12/11 10:01:01;;;;;;;89.10;39.45;;;4.20;99.90;;;;;;4700034;30;20329;-81
2021/12/11 10:03:31;;;;;;;90.03;38.17;;;4.30;99.90;;;;;;4678833;30;20038;-80
2021/12/11 10:06:15;;;;;;;92.75;36.00;;;4.40;99.90;;;;;;4678887;30;20086;-81
2021/12/11 10:08:45;;;;;;;82.97;37.13;;;4.60;99.90;;;;;;4692990;30;20052;-80
2021/12/11 10:11:19;;;;;;;85.55;36.58;;;4.80;99.90;;;;;;4686615;30;20038;-81
2021/12/11 10:13:56;;;;;;;87.03;38.15;;;4.90;99.60;;;;;;4684686;30;20037;-80
2021/12/11 10:16:25;;;;;;;;;;;5.00;99.30;;;;;;4708785;30;20135;-81
2021/12/11 10:18:51;;;;;;;84.20;37.45;;;5.00;98.90;;;;;;4693241;30;19918;-80
2021/12/11 10:21:22;;;;;;;101.25;38.78;;;5.00;98.90;;;;;;4681737;30;20075;-80
2021/12/11 10:23:52;;;;;;;95.35;37.80;;;5.00;98.80;;;;;;4684189;30;20163;-80
2021/12/11 10:26:23;;;;;;;84.95;38.42;;;5.00;98.80;;;;;;4696037;30;20040;-81
2021/12/11 10:28:52;;;;;;;93.88;37.47;;;5.00;99.10;;;;;;4679752;30;20033;-80
2021/12/11 10:31:33;;;;;;;85.18;37.67;;;5.10;99.10;;;;;;4679217;30;20049;-81
2021/12/11 10:34:02;;;;;;;92.03;38.53;;;5.20;98.50;;;;;;4705715;30;20034;-80
2021/12/11 10:36:31;;;;;;;85.53;37.67;;;5.10;97.60;;;;;;4696060;30;20037;-81
2021/12/11 10:39:00;;;;;;;90.93;39.08;;;4.90;98.20;;;;;;4682160;30;20033;-81
2021/12/11 10:41:29;;;;;;;86.28;36.38;;;4.80;98.20;;;;;;4680712;30;20046;-81
2021/12/11 10:44:09;;;;;;;84.50;37.80;;;4.80;98.70;;;;;;4682262;30;20051;-81
2021/12/11 10:46:45;;;;;;;90.82;38.78;;;4.80;98.80;;;;;;4707953;30;20080;-80
2021/12/11 10:49:13;;;;;;;86.10;36.47;;;4.80;99.10;;;;;;4679298;30;20038;-80
2021/12/11 10:51:45;;;;;;;82.50;37.67;;;5.00;99.20;;;;;;4676643;30;20068;-80
2021/12/11 10:54:14;;;;;;;85.70;38.05;;;5.00;98.70;;;;;;4693181;30;20041;-81
2021/12/11 10:56:41;;;;;;;86.22;40.63;;;5.10;98.60;;;;;;4694062;30;20045;-80
2021/12/11 10:59:14;;;;;;;84.45;38.83;;;5.10;98.80;;;;;;4679603;30;20361;-80
2021/12/11 11:01:51;;;;;;;82.97;38.40;;;5.20;98.50;;;;;;4681867;30;20061;-80
2021/12/11 11:04:19;;;;;;;;;;;5.10;97.80;;;;;;4696696;30;20395;-80
2021/12/11 11:06:46;;;;;;;78.68;36.55;;;5.00;98.20;;;;;;4681874;30;19911;-80
2021/12/11 11:09:14;;;;;;;75.32;32.83;;;5.10;98.90;;;;;;4681284;30;20041;-80
2021/12/11 11:11:40;;;;;;;83.57;34.45;;;5.20;98.70;;;;;;4681864;30;20042;-80
2021/12/11 11:14:09;;;;;;;75.47;34.42;;;5.20;97.70;;;;;;4679735;30;20076;-80
2021/12/11 11:16:37;;;;;;;96.18;40.95;;;5.00;98.00;;;;;;4695032;30;20249;-81
2021/12/11 11:19:03;;;;;;;84.85;35.97;;;5.00;98.30;;;;;;4678124;30;20033;-81
2021/12/11 11:21:38;;;;;;;78.72;37.20;;;5.00;98.50;;;;;;4678851;30;20034;-81
2021/12/11 11:24:06;;;;;;;79.97;37.00;;;5.10;98.80;;;;;;4680971;30;20059;-81
2021/12/11 11:26:35;;;;;;;78.88;35.97;;;5.10;98.30;;;;;;4695470;30;20328;-81
2021/12/11 11:29:06;;;;;;;86.15;38.17;;;5.20;98.30;;;;;;4681329;30;20116;-81
2021/12/11 11:31:36;;;;;;;79.93;34.53;;;5.20;97.80;;;;;;4689963;30;20091;-80
2021/12/11 11:34:07;;;;;;;69.88;32.72;;;5.20;98.00;;;;;;4695296;30;20078;-80
2021/12/11 11:36:34;;;;;;;63.17;29.42;;;5.30;97.60;;;;;;4677784;30;20104;-82
2021/12/11 11:39:05;;;;;;;76.85;36.22;;;5.30;97.90;;;;;;4680489;30;20049;-83
2021/12/11 11:41:39;;;;;;;69.47;33.88;;;5.40;98.00;;;;;;4694632;30;20045;-82
2021/12/11 11:44:05;;;;;;;82.30;37.40;;;5.60;97.60;;;;;;4695232;30;20041;-82
2021/12/11 11:46:32;;;;;;;85.20;37.03;;;5.70;96.70;;;;;;4678737;30;20150;-82
2021/12/11 11:49:00;;;;;;;79.75;37.75;;;5.80;96.70;;;;;;4681135;30;20044;-80
2021/12/11 11:51:34;;;;;;;89.00;39.67;;;5.80;96.70;;;;;;4666786;30;20356;-81
2021/12/11 11:54:02;;;;;;;88.57;37.42;;;5.70;95.80;;;;;;4680845;30;20042;-81
2021/12/11 11:56:33;;;;;;;85.20;37.40;;;5.60;96.30;;;;;;4681068;30;20550;-82
2021/12/11 11:58:59;;;;;;;74.13;35.28;;;5.60;96.30;;;;;;4680556;30;20042;-82
2021/12/11 12:01:37;;;;;;;77.65;35.67;;;5.70;96.50;;;;;;4666587;30;20112;-82
2021/12/11 12:04:03;;;;;;;71.20;33.88;;;5.70;95.70;;;;;;4680826;30;20041;-82
2021/12/11 12:06:33;;;;;;;78.90;36.67;;;5.60;95.50;;;;;;4679888;30;20029;-82
2021/12/11 12:09:05;;;;;;;77.07;36.53;;;5.50;96.10;;;;;;4695458;30;20049;-82
2021/12/11 12:11:31;;;;;;;78.88;36.35;;;5.50;96.60;;;;;;4693501;30;20123;-83
2021/12/11 12:13:59;;;;;;;93.07;41.67;;;5.60;96.50;;;;;;4675670;30;20038;-83
2021/12/11 12:16:26;;;;;;;87.53;39.88;;;5.50;96.60;;;;;;4692100;30;20041;-83
2021/12/11 12:18:54;;;;;;;86.45;37.47;;;5.60;96.90;;;;;;4680223;30;20156;-83
2021/12/11 12:21:21;;;;;;;79.88;36.58;;;5.50;96.50;;;;;;4710433;30;20033;-83
2021/12/11 12:23:47;;;;;;;80.07;36.17;;;5.40;96.80;;;;;;4669852;30;20099;-82
2021/12/11 12:26:22;;;;;;;77.57;35.92;;;5.40;96.70;;;;;;4683839;30;20040;-83
2021/12/11 12:28:52;;;;;;;79.65;35.42;;;5.30;96.50;;;;;;4679410;30;20029;-83
2021/12/11 12:31:23;;;;;;;80.45;35.67;;;5.30;97.30;;;;;;4677438;30;20038;-83
2021/12/11 12:33:49;;;;;;;74.65;35.47;;;5.20;96.70;;;;;;4692867;30;20039;-83
2021/12/11 12:36:16;;;;;;;82.50;37.10;;;5.20;96.90;;;;;;4680890;30;20356;-83
2021/12/11 12:39:02;;;;;;;;;;;5.20;97.30;;;;;;4681045;30;20041;-84
2021/12/11 12:41:31;;;;;;;83.45;35.53;;;5.20;96.90;;;;;;4693099;30;19919;-84
2021/12/11 12:46:41;;;;;;;92.82;37.45;;;5.40;97.00;;;;;;4688567;30;20100;-85
2021/12/11 12:49:07;;;;;;;81.38;38.35;;;5.40;96.50;;;;;;4668515;30;20077;-85
2021/12/11 12:51:34;;;;;;;85.73;38.80;;;5.40;96.60;;;;;;4677521;30;20056;-84
2021/12/11 12:54:05;;;;;;;75.55;36.13;;;5.30;96.80;;;;;;4691722;30;20322;-84
2021/12/11 12:56:42;;;;;;;77.82;36.90;;;5.30;96.70;;;;;;4691729;30;20338;-85
2021/12/11 12:59:31;;;;;;;76.30;35.22;;;5.10;96.60;;;;;;4676182;30;20206;-85
2021/12/11 13:01:59;;;;;;;77.30;35.78;;;5.10;96.90;;;;;;4684079;30;20046;-85
2021/12/11 13:04:31;;;;;;;72.63;33.92;;;5.00;97.10;;;;;;4676992;30;20038;-85
2021/12/11 13:07:02;;;;;;;76.28;35.78;;;5.10;97.50;;;;;;4683050;30;20036;-84
2021/12/11 13:09:41;;;;;;;75.80;33.58;;;5.20;97.50;;;;;;4690972;30;20034;-85
2021/12/11 13:12:16;;;;;;;70.72;34.40;;;5.20;96.90;;;;;;4674425;30;20222;-85
2021/12/11 13:14:43;;;;;;;75.78;35.03;;;5.10;96.80;;;;;;4666134;30;20056;-84
2021/12/11 13:17:13;;;;;;;70.63;33.83;;;5.00;97.00;;;;;;4662009;30;20291;-84
2021/12/11 13:19:46;;;;;;;72.57;34.40;;;4.90;96.80;;;;;;4667389;30;20230;-85
2021/12/11 13:22:46;;;;;;;72.88;33.38;;;4.90;97.40;;;;;;4677150;30;20238;-85
2021/12/11 13:25:22;;;;;;;74.25;34.20;;;4.80;97.40;;;;;;4617162;31;20063;-85
2021/12/11 13:27:52;;;;;;;84.30;36.87;;;4.80;97.50;;;;;;4619527;31;20126;-85
2021/12/11 13:30:30;;;;;;;81.85;36.47;;;4.80;97.50;;;;;;4619429;31;20283;-85
2021/12/11 13:32:57;;;;;;;79.25;36.65;;;4.80;98.00;;;;;;4610846;31;20093;-85
2021/12/11 13:35:26;;;;;;;69.20;33.58;;;4.80;98.10;;;;;;4610384;31;20296;-85
2021/12/11 13:37:53;;;;;;;75.22;35.78;;;4.80;98.10;;;;;;4624861;31;20055;-85
2021/12/11 13:40:21;;;;;;;75.80;35.78;;;4.90;98.00;;;;;;4611242;31;20121;-86
2021/12/11 13:42:49;;;;;;;74.07;34.60;;;5.00;97.80;;;;;;4611718;31;20043;-85
2021/12/11 13:45:26;;;;;;;76.68;35.80;;;5.00;97.60;;;;;;4621319;31;20086;-85
2021/12/11 13:47:52;;;;;;;78.63;37.40;;;4.90;97.70;;;;;;4604568;31;20785;-85
2021/12/11 13:50:25;;;;;;;75.85;36.47;;;5.00;97.90;;;;;;4608354;31;20054;-85
2021/12/11 13:52:52;;;;;;;72.32;35.42;;;4.90;97.70;;;;;;4605084;31;20049;-85
2021/12/11 13:55:21;;;;;;;84.32;39.15;;;4.90;98.10;;;;;;4606133;31;20047;-86
2021/12/11 13:57:48;;;;;;;87.07;40.45;;;5.00;98.20;;;;;;4593203;31;20237;-86
2021/12/11 14:00:43;;;;;;;90.95;42.03;;;4.90;98.00;;;;;;4624047;30;20121;-86
2021/12/11 14:03:14;;;;;;;86.78;37.15;;;4.90;98.40;;;;;;4670225;30;20085;-86
2021/12/11 14:05:40;;;;;;;74.97;35.10;;;4.90;98.10;;;;;;4660256;30;20214;-86
2021/12/11 14:08:10;;;;;;;87.90;38.67;;;4.70;98.00;;;;;;4662170;30;20357;-86
2021/12/11 14:10:36;;;;;;;79.90;36.28;;;4.60;98.10;;;;;;4660177;30;20026;-86
2021/12/11 14:13:08;;;;;;;81.63;37.33;;;4.60;98.30;;;;;;4676265;30;20038;-86
2021/12/11 14:15:35;;;;;;;81.60;36.65;;;4.40;98.30;;;;;;4659348;30;20069;-86
2021/12/11 14:18:01;;;;;;;;;;;4.30;98.70;;;;;;4662283;30;20284;-86
2021/12/11 14:20:31;;;;;;;89.68;39.33;;;4.30;99.00;;;;;;4661701;30;19978;-86
2021/12/11 14:23:03;;;;;;;92.30;39.45;;;4.30;99.00;;;;;;4661679;30;20046;-86
2021/12/11 14:25:33;;;;;;;90.18;39.83;;;4.30;99.10;;;;;;4671783;30;20057;-86
2021/12/11 14:28:10;;;;;;;101.10;42.20;;;4.20;99.20;;;;;;4662111;30;20042;-86
2021/12/11 14:30:47;;;;;;;98.55;42.05;;;4.20;99.50;;;;;;4661411;30;20112;-86
2021/12/11 14:33:17;;;;;;;97.57;42.95;;;4.10;99.70;;;;;;4647094;30;20061;-87
2021/12/11 14:35:44;;;;;;;99.47;42.97;;;4.10;99.90;;;;;;4661634;30;20061;-87
2021/12/11 14:38:31;;;;;;;93.05;42.97;;;4.10;99.90;;;;;;4604657;31;20052;-86
2021/12/11 14:40:57;;;;;;;97.80;44.20;;;4.00;99.90;;;;;;4604488;31;20060;-86
2021/12/11 14:43:23;;;;;;;95.82;45.10;;;4.00;99.90;;;;;;4588516;31;20056;-86
2021/12/11 14:45:52;;;;;;;103.72;44.65;;;4.00;99.90;;;;;;4596951;31;20100;-85
2021/12/11 14:48:19;;;;;;;108.85;45.55;;;4.10;99.90;;;;;;4607675;31;20044;-86
2021/12/11 14:50:53;;;;;;;101.38;44.08;;;4.00;99.90;;;;;;4594324;31;20118;-85
2021/12/11 14:53:22;;;;;;;106.55;45.75;;;4.00;99.90;;;;;;4593667;31;20051;-85
2021/12/11 14:55:53;;;;;;;111.47;47.78;;;4.00;99.90;;;;;;4577305;31;20064;-85
2021/12/11 14:58:19;;;;;;;110.68;48.78;;;4.00;99.90;;;;;;4593617;31;20052;-85
2021/12/11 15:00:56;;;;;;;107.15;45.55;;;4.00;99.90;;;;;;4593819;31;20067;-85
2021/12/11 15:03:22;;;;;;;111.57;47.63;;;4.00;99.90;;;;;;4593708;31;20043;-85
2021/12/11 15:05:49;;;;;;;100.22;44.40;;;4.10;99.90;;;;;;4594020;31;20043;-85
2021/12/11 15:08:21;;;;;;;103.47;44.63;;;4.10;99.90;;;;;;4600475;30;20035;-85
2021/12/11 15:10:49;;;;;;;106.82;43.58;;;4.10;99.90;;;;;;4645515;30;20046;-85
2021/12/11 15:13:17;;;;;;;102.30;43.08;;;4.10;99.90;;;;;;4646796;30;20042;-85
2021/12/11 15:15:44;;;;;;;107.10;45.90;;;4.20;99.90;;;;;;4646972;30;20029;-85
2021/12/11 15:18:10;;;;;;;102.90;45.20;;;4.20;99.90;;;;;;4664580;30;20077;-85
2021/12/11 15:20:40;;;;;;;108.43;47.28;;;4.20;99.90;;;;;;4646510;30;20331;-85
2021/12/11 15:23:09;;;;;;;112.95;49.58;;;4.20;99.90;;;;;;4651313;30;20041;-85
2021/12/11 15:25:35;;;;;;;108.55;47.92;;;4.20;99.90;;;;;;4645672;30;20046;-85
2021/12/11 15:28:01;;;;;;;103.82;45.63;;;4.30;99.90;;;;;;4652624;30;20037;-85
2021/12/11 15:30:32;;;;;;;114.35;48.50;;;4.30;99.90;;;;;;4695965;30;20037;-85
2021/12/11 15:32:58;;;;;;;117.05;47.25;;;4.20;99.90;;;;;;4680755;30;20041;-85
2021/12/11 15:35:30;;;;;;;117.40;47.80;;;4.20;99.90;;;;;;4674327;30;20049;-85
2021/12/11 15:37:56;;;;;;;122.28;51.38;;;4.20;99.90;;;;;;4681447;30;20380;-84
2021/12/11 15:40:27;;;;;;;123.40;50.13;;;4.10;99.90;;;;;;4681265;30;20033;-85
2021/12/11 15:42:53;;;;;;;114.40;48.88;;;4.10;99.90;;;;;;4700946;30;20033;-84
2021/12/11 15:45:21;;;;;;;131.65;51.85;;;4.00;99.90;;;;;;4680561;30;20037;-84
2021/12/11 15:47:49;;;;;;;130.35;52.47;;;4.10;99.90;;;;;;4678480;30;20057;-84
2021/12/11 15:50:17;;;;;;;113.55;49.75;;;4.10;99.90;;;;;;4679363;30;20104;-85
2021/12/11 15:52:44;;;;;;;128.95;52.80;;;4.20;99.90;;;;;;4704134;30;20025;-84
2021/12/11 15:55:14;;;;;;;140.32;54.10;;;4.20;99.90;;;;;;4679578;30;20042;-84
2021/12/11 15:57:41;;;;;;;121.07;50.30;;;4.20;99.90;;;;;;4706467;30;20064;-84
2021/12/11 16:00:08;;;;;;;115.50;50.30;;;4.20;99.90;;;;;;4686518;30;20037;-86
2021/12/11 16:02:37;;;;;;;131.70;51.60;;;4.10;99.90;;;;;;4684361;30;20057;-86
2021/12/11 16:05:06;;;;;;;125.70;51.90;;;4.10;99.90;;;;;;4697646;30;20108;-86
2021/12/11 16:07:33;;;;;;;124.80;50.40;;;4.10;99.90;;;;;;4684704;30;20065;-86
2021/12/11 16:10:00;;;;;;;;;;;4.10;99.90;;;;;;4685033;30;20041;-85
2021/12/11 16:12:27;;;;;;;106.93;46.08;;;4.10;99.90;;;;;;4699931;30;19957;-85
2021/12/11 16:14:54;;;;;;;107.15;44.63;;;4.10;99.90;;;;;;4665062;30;20049;-86
2021/12/11 16:17:20;;;;;;;113.13;47.40;;;4.00;99.90;;;;;;4676663;30;20046;-85
2021/12/11 16:19:50;;;;;;;109.90;45.22;;;4.10;99.90;;;;;;4678875;30;20080;-86
2021/12/11 16:22:21;;;;;;;104.90;46.47;;;4.00;99.90;;;;;;4679593;30;20286;-86
2021/12/11 16:24:52;;;;;;;123.10;49.17;;;4.00;99.90;;;;;;4676985;30;20067;-86
2021/12/11 16:27:21;;;;;;;115.75;49.22;;;4.00;99.90;;;;;;4697451;30;20034;-86
2021/12/11 16:29:48;;;;;;;121.18;50.85;;;4.00;99.90;;;;;;4664643;30;20045;-86
2021/12/11 16:32:14;;;;;;;122.60;50.90;;;4.00;99.90;;;;;;4693797;30;20025;-84
2021/12/11 16:34:41;;;;;;;122.00;51.60;;;4.00;99.90;;;;;;4692018;30;20045;-85
2021/12/11 16:37:41;;;;;;;128.00;51.25;;;4.10;99.90;;;;;;4678429;30;20378;-85
2021/12/11 16:40:22;;;;;;;139.57;55.45;;;4.10;99.90;;;;;;4606903;31;20067;-85
2021/12/11 16:43:11;;;;;;;130.55;52.13;;;4.10;99.90;;;;;;4593964;31;20119;-85
2021/12/11 16:45:40;;;;;;;124.15;50.85;;;4.00;99.90;;;;;;4585975;31;20156;-85